Time;durP1;ratioP1;P1;durP2;ratioP2;P2;SDS_P1;SDS_P2;PMS_P1;PMS_P2;Temp;Humidity;BMP_temperature;BMP_pressure;BME280_temperature;BME280_humidity;BME280_pressure;Samples;Min_cycle;Max_cycle;Signal;HPM_P1;HPM_P2
2023/06/30 00:00:43;;;;;;;;;;;;;;;-144.99;100.00;52285.03;5066160;28;20053;-69
2023/06/30 00:03:09;;;;;;;;;;;;;;;-144.99;100.00;52293.19;5056418;28;19925;-67
2023/06/30 00:05:36;;;;;;;;;;;;;;;-144.99;100.00;52297.25;5065710;28;20020;-69
2023/06/30 00:08:03;;;;;;;;;;;;;;;-144.99;100.00;52285.03;5068256;28;19966;-68
2023/06/30 00:10:29;;;;;;;;;;;;;;;-144.99;100.00;52289.13;5070330;28;20011;-69
2023/06/30 00:12:56;;;;;;;;;;;;;;;-144.99;100.00;52276.88;5065696;28;20320;-69
2023/06/30 00:15:23;;;;;;;;;;;;;;;-144.99;100.00;52276.88;5065896;28;20078;-69
2023/06/30 00:17:52;;;;;;;;;;;;;;;-144.99;100.00;52293.19;5070616;28;19965;-69
2023/06/30 00:20:21;;;;;;;;;;;;;;;-144.99;100.00;52293.19;5066306;28;19954;-69
2023/06/30 00:22:47;;;;;;;;;;;;;;;-144.99;100.00;52264.66;5070835;28;19946;-69
2023/06/30 00:25:14;;;;;;;;;;;;;;;-144.99;100.00;52264.66;5070130;28;19939;-68
2023/06/30 00:27:41;;;;;;;;;;;;;;;-144.99;100.00;52285.03;5067103;28;19944;-68
2023/06/30 00:30:08;;;;;;;;;;;;;;;-144.99;100.00;52313.56;5071621;28;19990;-68
2023/06/30 00:32:34;;;;;;;;;;;;;;;-144.99;100.00;52264.66;5069875;28;19945;-69
2023/06/30 00:35:03;;;;;;;;;;;;;;;-144.99;100.00;52285.03;5063961;28;19942;-68
2023/06/30 00:37:30;;;;;;;;;;;;;;;-144.99;100.00;52289.13;5071916;28;19950;-69
2023/06/30 00:39:56;;;;;;;;;;;;;;;-144.99;100.00;52272.81;5072921;28;19963;-69
2023/06/30 00:42:23;;;;;;;;;;;;;;;-144.99;100.00;52280.97;5069766;28;19941;-68
2023/06/30 00:44:50;;;;;;;;;;;;;;;-144.99;100.00;52285.03;5068773;28;19991;-69
2023/06/30 00:47:16;;;;;;;;;;;;;;;-144.99;100.00;52260.56;5067536;28;19969;-68
2023/06/30 00:49:43;;;;;;;;;;;;;;;-144.99;100.00;52260.56;5063636;28;19954;-67
2023/06/30 00:52:12;;;;;;;;;;;;;;;-144.99;100.00;52276.88;5069816;28;19942;-67
2023/06/30 00:54:38;;;;;;;;;;;;;;;-144.99;100.00;52317.66;5076728;28;19939;-68
2023/06/30 00:57:07;;;;;;;;;;;;;;;-144.99;100.00;52297.25;5070905;28;19941;-68
2023/06/30 00:59:33;;;;;;;;;;;;;;;-144.99;100.00;52285.03;5067538;28;19960;-68
2023/06/30 01:02:04;;;;;;;;;;;;;;;-144.99;100.00;52276.88;5066602;28;19945;-68
2023/06/30 01:04:35;;;;;;;;;;;;;;;-144.99;100.00;52278.91;5066578;28;19946;-68
2023/06/30 01:07:05;;;;;;;;;;;;;;;-144.99;100.00;52327.84;5063718;28;20045;-68
2023/06/30 01:09:37;;;;;;;;;;;;;;;-144.99;100.00;52278.91;5070210;28;19931;-68
2023/06/30 01:12:04;;;;;;;;;;;;;;;-144.99;100.00;52313.56;5060969;28;20192;-69
2023/06/30 01:14:31;;;;;;;;;;;;;;;-144.99;100.00;52301.34;5069905;28;19957;-68
2023/06/30 01:16:58;;;;;;;;;;;;;;;-144.99;100.00;52301.34;5067898;28;19937;-68
2023/06/30 01:19:28;;;;;;;;;;;;;;;-144.99;100.00;52276.88;5072547;28;20022;-68
2023/06/30 01:21:56;;;;;;;;;;;;;;;-144.99;100.00;52293.19;5071783;28;19942;-68
2023/06/30 01:24:26;;;;;;;;;;;;;;;-144.99;100.00;52297.25;5074786;28;19946;-67
2023/06/30 01:26:54;;;;;;;;;;;;;;;-144.99;100.00;52280.97;5068689;28;20051;-68
2023/06/30 01:29:21;;;;;;;;;;;;;;;-144.99;100.00;52280.97;5070822;28;19942;-68
2023/06/30 01:31:47;;;;;;;;;;;;;;;-144.99;100.00;52297.25;5074622;28;19946;-68
2023/06/30 01:34:14;;;;;;;;;;;;;;;-144.99;100.00;52289.13;5064035;28;20296;-67
2023/06/30 01:36:41;;;;;;;;;;;;;;;-144.99;100.00;52305.41;5071007;28;19947;-67
2023/06/30 01:39:07;;;;;;;;;;;;;;;-144.99;100.00;52317.66;5063879;28;19950;-67
2023/06/30 01:41:34;;;;;;;;;;;;;;;-144.99;100.00;52227.97;5065741;28;19959;-67
2023/06/30 01:44:03;;;;;;;;;;;;;;;-144.99;100.00;52321.72;5063424;28;19937;-68
2023/06/30 01:46:30;;;;;;;;;;;;;;;-144.99;100.00;52285.03;5070897;28;20194;-68
2023/06/30 01:48:57;;;;;;;;;;;;;;;-144.99;100.00;52260.56;5066703;28;19941;-67
2023/06/30 01:51:23;;;;;;;;;;;;;;;-144.99;100.00;52317.66;5073573;28;20447;-67
2023/06/30 01:53:50;;;;;;;;;;;;;;;-144.99;100.00;52301.34;5069666;28;19957;-68
2023/06/30 01:56:17;;;;;;;;;;;;;;;-144.99;100.00;52315.59;5071267;28;19942;-66
2023/06/30 01:58:43;;;;;;;;;;;;;;;-144.99;100.00;52276.88;5064394;28;19951;-68
2023/06/30 02:01:11;;;;;;;;;;;;;;;-144.99;100.00;52276.88;5072700;28;19958;-67
2023/06/30 02:03:38;;;;;;;;;;;;;;;-144.99;100.00;52301.34;5072373;28;20196;-67
2023/06/30 02:06:04;;;;;;;;;;;;;;;-144.99;100.00;52293.19;5064521;28;20409;-68
2023/06/30 02:08:31;;;;;;;;;;;;;;;-144.99;100.00;52293.19;5071097;28;20446;-67
2023/06/30 02:10:58;;;;;;;;;;;;;;;-144.99;100.00;52297.25;5062132;28;19970;-67
2023/06/30 02:13:24;;;;;;;;;;;;;;;-144.99;100.00;52309.50;5067822;28;20322;-67
2023/06/30 02:15:51;;;;;;;;;;;;;;;-144.99;100.00;52266.69;5069596;28;19944;-67
2023/06/30 02:18:22;;;;;;;;;;;;;;;-144.99;100.00;52297.25;5073239;28;19946;-67
2023/06/30 02:20:48;;;;;;;;;;;;;;;-144.99;100.00;52285.03;5068765;28;20342;-67
2023/06/30 02:23:15;;;;;;;;;;;;;;;-144.99;100.00;52329.88;5067943;28;19963;-68
2023/06/30 02:25:42;;;;;;;;;;;;;;;-144.99;100.00;52268.72;5064063;28;20464;-68
2023/06/30 02:28:08;;;;;;;;;;;;;;;-144.99;100.00;52309.50;5061062;28;19928;-68
2023/06/30 02:33:07;;;;;;;;;;;;;;;-144.99;100.00;52309.50;5064100;28;19957;-72
2023/06/30 02:35:34;;;;;;;;;;;;;;;-144.99;100.00;52338.03;5068494;28;19986;-73
2023/06/30 02:38:03;;;;;;;;;;;;;;;-144.99;100.00;52323.75;5067288;28;20005;-72
2023/06/30 02:40:30;;;;;;;;;;;;;;;-144.99;100.00;52289.13;5066903;28;19954;-73
2023/06/30 02:42:56;;;;;;;;;;;;;;;-144.99;100.00;52278.91;5062413;28;19932;-73
2023/06/30 02:45:23;;;;;;;;;;;;;;;-144.99;100.00;52293.19;5066933;28;19974;-73
2023/06/30 02:47:49;;;;;;;;;;;;;;;-144.99;100.00;52313.56;5065007;28;19962;-72
2023/06/30 02:50:16;;;;;;;;;;;;;;;-144.99;100.00;52325.81;5064977;28;19960;-72
2023/06/30 02:52:44;;;;;;;;;;;;;;;-144.99;100.00;52297.25;5063576;28;19943;-73
2023/06/30 02:55:11;;;;;;;;;;;;;;;-144.99;100.00;52342.09;5063857;28;19951;-72
2023/06/30 02:57:37;;;;;;;;;;;;;;;-144.99;100.00;52321.72;5055849;28;20264;-72
2023/06/30 03:00:05;;;;;;;;;;;;;;;-144.99;100.00;52297.25;5061972;28;19955;-72
2023/06/30 03:02:31;;;;;;;;;;;;;;;-144.99;100.00;52289.13;5055062;28;19986;-72
2023/06/30 03:04:58;;;;;;;;;;;;;;;-144.99;100.00;52299.31;5064685;28;20176;-72
2023/06/30 03:07:25;;;;;;;;;;;;;;;-144.99;100.00;52276.88;5061170;28;19951;-72
2023/06/30 03:09:53;;;;;;;;;;;;;;;-144.99;100.00;52321.72;5054506;28;20444;-72
2023/06/30 03:12:19;;;;;;;;;;;;;;;-144.99;100.00;52289.13;5061384;28;19936;-72
2023/06/30 03:14:46;;;;;;;;;;;;;;;-144.99;100.00;52293.19;5055864;28;19938;-72
2023/06/30 03:17:13;;;;;;;;;;;;;;;-144.99;100.00;52293.19;5066495;28;19942;-72
2023/06/30 03:19:39;;;;;;;;;;;;;;;-144.99;100.00;52342.09;5056279;28;20354;-71
2023/06/30 03:22:06;;;;;;;;;;;;;;;-144.99;100.00;52309.50;5062277;28;19955;-71
2023/06/30 03:24:33;;;;;;;;;;;;;;;-144.99;100.00;52321.72;5060061;28;19955;-71
2023/06/30 03:27:01;;;;;;;;;;;;;;;-144.99;100.00;52321.72;5062650;28;20360;-72
2023/06/30 03:29:27;;;;;;;;;;;;;;;-144.99;100.00;52289.13;5060474;28;20339;-71
2023/06/30 03:31:54;;;;;;;;;;;;;;;-144.99;100.00;52311.53;5061179;28;20353;-71
2023/06/30 03:34:20;;;;;;;;;;;;;;;-144.99;100.00;52301.34;5060652;28;19970;-71
2023/06/30 03:36:47;;;;;;;;;;;;;;;-144.99;100.00;52340.06;5065757;28;20311;-71
2023/06/30 03:39:14;;;;;;;;;;;;;;;-144.99;100.00;52276.88;5066908;28;19942;-71
2023/06/30 03:41:40;;;;;;;;;;;;;;;-144.99;100.00;52293.19;5060507;28;19942;-72
2023/06/30 03:44:10;;;;;;;;;;;;;;;-144.99;100.00;52354.34;5065681;28;19971;-71
2023/06/30 03:46:37;;;;;;;;;;;;;;;-144.99;100.00;52313.56;5061493;28;19963;-71
2023/06/30 03:49:04;;;;;;;;;;;;;;;-144.99;100.00;52293.19;5063838;28;20466;-71
2023/06/30 03:51:30;;;;;;;;;;;;;;;-144.99;100.00;52305.41;5060517;28;19963;-71
2023/06/30 03:53:57;;;;;;;;;;;;;;;-144.99;100.00;52303.38;5067099;28;19946;-72
2023/06/30 03:56:24;;;;;;;;;;;;;;;-144.99;100.00;52297.25;5063981;28;19957;-72
2023/06/30 03:58:50;;;;;;;;;;;;;;;-144.99;100.00;52301.34;5059234;28;19945;-72
2023/06/30 04:01:18;;;;;;;;;;;;;;;-144.99;100.00;52301.34;5067115;28;19966;-73
2023/06/30 04:03:46;;;;;;;;;;;;;;;-144.99;100.00;52311.53;5059819;28;19953;-73
2023/06/30 04:06:12;;;;;;;;;;;;;;;-144.99;100.00;52297.25;5063554;28;19979;-72
2023/06/30 04:08:39;;;;;;;;;;;;;;;-144.99;100.00;52305.41;5054875;28;20016;-73
2023/06/30 04:11:06;;;;;;;;;;;;;;;-144.99;100.00;52307.47;5058103;28;20343;-73
2023/06/30 04:13:32;;;;;;;;;;;;;;;-144.99;100.00;52297.25;5055650;28;20036;-73
2023/06/30 04:15:59;;;;;;;;;;;;;;;-144.99;100.00;52321.72;5061821;28;19968;-72
2023/06/30 04:18:28;;;;;;;;;;;;;;;-144.99;100.00;52299.31;5058675;28;19938;-73
2023/06/30 04:20:54;;;;;;;;;;;;;;;-144.99;100.00;52289.13;5058604;28;20358;-73
2023/06/30 04:23:21;;;;;;;;;;;;;;;-144.99;100.00;52272.81;5060273;28;20022;-73
2023/06/30 04:25:48;;;;;;;;;;;;;;;-144.99;100.00;52305.41;5062495;28;20313;-73
2023/06/30 04:28:15;;;;;;;;;;;;;;;-144.99;100.00;52264.66;5054956;28;20465;-73
2023/06/30 04:30:41;;;;;;;;;;;;;;;-144.99;100.00;52260.56;5060784;28;19963;-73
2023/06/30 04:33:08;;;;;;;;;;;;;;;-144.99;100.00;52309.50;5058023;28;19948;-73
2023/06/30 04:35:36;;;;;;;;;;;;;;;-144.99;100.00;52313.56;5065359;28;19945;-73
2023/06/30 04:38:02;;;;;;;;;;;;;;;-144.99;100.00;52285.03;5059777;28;19944;-73
2023/06/30 04:40:29;;;;;;;;;;;;;;;-144.99;100.00;52293.19;5065060;28;19958;-73
2023/06/30 04:42:55;;;;;;;;;;;;;;;-144.99;100.00;52268.72;5064771;28;19935;-73
2023/06/30 04:45:22;;;;;;;;;;;;;;;-144.99;100.00;52301.34;5059776;28;19939;-73
2023/06/30 04:47:49;;;;;;;;;;;;;;;-144.99;100.00;52280.97;5064209;28;20472;-73
2023/06/30 04:50:16;;;;;;;;;;;;;;;-144.99;100.00;52264.66;5056785;28;19954;-73
2023/06/30 04:52:44;;;;;;;;;;;;;;;-144.99;100.00;52272.81;5061575;28;19951;-73
2023/06/30 04:55:10;;;;;;;;;;;;;;;-144.99;100.00;52287.06;5064651;28;20276;-73
2023/06/30 04:57:37;;;;;;;;;;;;;;;-144.99;100.00;52266.69;5069305;28;19952;-73
2023/06/30 05:00:04;;;;;;;;;;;;;;;-144.99;100.00;52287.06;5065028;28;19966;-73
2023/06/30 05:02:30;;;;;;;;;;;;;;;-144.99;100.00;52309.50;5061663;28;19945;-73
2023/06/30 05:04:57;;;;;;;;;;;;;;;-144.99;100.00;52305.41;5065848;28;19944;-73
2023/06/30 05:07:24;;;;;;;;;;;;;;;-144.99;100.00;52305.41;5063653;28;19962;-73
2023/06/30 05:09:52;;;;;;;;;;;;;;;-144.99;100.00;52319.69;5065192;28;19960;-72
2023/06/30 05:12:18;;;;;;;;;;;;;;;-144.99;100.00;52309.50;5057181;28;19936;-72
2023/06/30 05:14:45;;;;;;;;;;;;;;;-144.99;100.00;52299.31;5068759;28;19952;-72
2023/06/30 05:17:11;;;;;;;;;;;;;;;-144.99;100.00;52325.81;5066147;28;19935;-71
2023/06/30 05:19:38;;;;;;;;;;;;;;;-144.99;100.00;52321.72;5055765;28;20320;-71
2023/06/30 05:22:06;;;;;;;;;;;;;;;-144.99;100.00;52313.56;5064439;28;19940;-71
2023/06/30 05:24:33;;;;;;;;;;;;;;;-144.99;100.00;52323.75;5058177;28;19967;-71
2023/06/30 05:27:01;;;;;;;;;;;;;;;-144.99;100.00;52307.47;5065096;28;19941;-71
2023/06/30 05:29:29;;;;;;;;;;;;;;;-144.99;100.00;52325.81;5067637;28;19958;-72
2023/06/30 05:31:56;;;;;;;;;;;;;;;-144.99;100.00;52317.66;5058829;28;20282;-72
2023/06/30 05:34:22;;;;;;;;;;;;;;;-144.99;100.00;52305.41;5065514;28;20398;-72
2023/06/30 05:36:49;;;;;;;;;;;;;;;-144.99;100.00;52287.06;5059236;28;19963;-71
2023/06/30 05:39:16;;;;;;;;;;;;;;;-144.99;100.00;52333.94;5064306;28;19936;-72
2023/06/30 05:41:42;;;;;;;;;;;;;;;-144.99;100.00;52329.88;5062864;28;19935;-73
2023/06/30 05:44:11;;;;;;;;;;;;;;;-144.99;100.00;52333.94;5069261;28;19963;-72
2023/06/30 05:46:38;;;;;;;;;;;;;;;-144.99;100.00;52325.81;5070722;28;19975;-74
2023/06/30 05:49:05;;;;;;;;;;;;;;;-144.99;100.00;52285.03;5068394;28;20357;-72
2023/06/30 05:51:33;;;;;;;;;;;;;;;-144.99;100.00;52293.19;5071804;28;20011;-72
2023/06/30 05:53:59;;;;;;;;;;;;;;;-144.99;100.00;52280.97;5075291;28;19939;-72
2023/06/30 05:56:26;;;;;;;;;;;;;;;-144.99;100.00;52301.34;5071866;28;19945;-72
2023/06/30 05:58:53;;;;;;;;;;;;;;;-144.99;100.00;52285.03;5056438;28;19942;-72
2023/06/30 06:01:21;;;;;;;;;;;;;;;-144.99;100.00;52305.41;5067451;28;19935;-72
2023/06/30 06:03:48;;;;;;;;;;;;;;;-144.99;100.00;52297.25;5067923;28;20076;-72
2023/06/30 06:06:15;;;;;;;;;;;;;;;-144.99;100.00;52350.25;5068492;28;20405;-72
2023/06/30 06:08:43;;;;;;;;;;;;;;;-144.99;100.00;52307.47;5067760;28;19964;-73
2023/06/30 06:11:10;;;;;;;;;;;;;;;-144.99;100.00;52323.75;5067567;28;19957;-72
2023/06/30 06:13:37;;;;;;;;;;;;;;;-144.99;100.00;52305.41;5064476;28;19967;-73
2023/06/30 06:16:04;;;;;;;;;;;;;;;-144.99;100.00;52319.69;5064322;28;20405;-72
2023/06/30 06:18:33;;;;;;;;;;;;;;;-144.99;100.00;52293.19;5058938;28;20356;-73
2023/06/30 06:21:03;;;;;;;;;;;;;;;-144.99;100.00;52293.19;5064328;28;20561;-72
2023/06/30 06:23:30;;;;;;;;;;;;;;;-144.99;100.00;52301.34;5062233;28;20322;-72
2023/06/30 06:25:56;;;;;;;;;;;;;;;-144.99;100.00;52280.97;5066580;28;19944;-72
2023/06/30 06:28:23;;;;;;;;;;;;;;;-144.99;100.00;52293.19;5061724;28;19956;-72
2023/06/30 06:30:50;;;;;;;;;;;;;;;-144.99;99.71;52276.88;5062959;28;20422;-73
2023/06/30 06:33:17;;;;;;;;;;;;;;;-144.99;98.89;52264.66;5068439;28;20022;-74
2023/06/30 06:35:45;;;;;;;;;;;;;;;-144.99;98.31;52252.44;5066433;28;19947;-74
2023/06/30 06:38:15;;;;;;;;;;;;;;;-144.99;97.43;52244.28;5056521;28;19958;-76
2023/06/30 06:40:41;;;;;;;;;;;;;;;-144.99;96.48;52289.13;5066072;28;19961;-73
2023/06/30 06:43:08;;;;;;;;;;;;;;;-144.99;95.52;52280.97;5061512;28;19947;-72
2023/06/30 06:45:35;;;;;;;;;;;;;;;-144.99;94.10;52254.47;5058919;28;19951;-73
2023/06/30 06:48:20;;;;;;;;;;;;;;;-144.99;93.84;52270.78;5059213;28;19960;-73
2023/06/30 06:50:49;;;;;;;;;;;;;;;-144.99;92.69;52252.44;5057424;28;19967;-72
2023/06/30 06:53:17;;;;;;;;;;;;;;;-144.99;92.47;52225.94;5063232;28;19954;-73
2023/06/30 06:55:44;;;;;;;;;;;;;;;-144.99;90.49;52264.66;5067254;28;19963;-72
2023/06/30 06:58:10;;;;;;;;;;;;;;;-144.99;87.65;52256.50;5058599;28;19951;-72
2023/06/30 07:00:37;;;;;;;;;;;;;;;-144.99;86.92;52244.28;5061941;28;19966;-72
2023/06/30 07:03:04;;;;;;;;;;;;;;;-144.99;85.64;52260.56;5067806;28;19953;-73
2023/06/30 07:05:31;;;;;;;;;;;;;;;-144.99;85.81;52240.19;5068284;28;19947;-73
2023/06/30 07:07:59;;;;;;;;;;;;;;;-144.99;85.03;52244.28;5062779;28;20198;-73
2023/06/30 07:10:25;;;;;;;;;;;;;;;-144.99;83.59;52227.97;5056008;28;19957;-74
2023/06/30 07:12:53;;;;;;;;;;;;;;;-144.99;82.96;52252.44;5062296;28;19940;-73
2023/06/30 07:15:19;;;;;;;;;;;;;;;-144.99;82.74;52244.28;5063846;28;19945;-73
2023/06/30 07:17:46;;;;;;;;;;;;;;;-144.99;82.60;52256.50;5059920;28;19983;-74
2023/06/30 07:20:13;;;;;;;;;;;;;;;-144.99;81.74;52256.50;5054932;28;19958;-72
2023/06/30 07:22:39;;;;;;;;;;;;;;;-144.99;82.13;52276.88;5064510;28;19940;-72
2023/06/30 07:25:08;;;;;;;;;;;;;;;-144.99;81.81;52252.44;5063825;28;19938;-72
2023/06/30 07:27:36;;;;;;;;;;;;;;;-144.99;82.02;52272.81;5065484;28;19949;-72
2023/06/30 07:30:03;;;;;;;;;;;;;;;-144.99;82.05;52264.66;5056509;28;19962;-71
2023/06/30 07:32:33;;;;;;;;;;;;;;;-144.99;81.72;52244.28;5058799;28;20333;-72
2023/06/30 07:35:01;;;;;;;;;;;;;;;-144.99;81.66;52248.34;5065847;28;19938;-72
2023/06/30 07:37:28;;;;;;;;;;;;;;;-144.99;79.88;52236.13;5062157;28;20428;-72
2023/06/30 07:39:54;;;;;;;;;;;;;;;-144.99;80.04;52242.22;5064480;28;19957;-72
2023/06/30 07:42:22;;;;;;;;;;;;;;;-144.99;77.11;52248.34;5064453;28;19946;-72
2023/06/30 07:44:50;;;;;;;;;;;;;;;-144.99;76.40;52215.75;5056315;28;19981;-72
2023/06/30 07:47:17;;;;;;;;;;;;;;;-144.99;76.00;52234.09;5060671;28;20311;-72
2023/06/30 07:49:43;;;;;;;;;;;;;;;-144.99;76.15;52215.75;5054786;28;20675;-72
2023/06/30 07:52:11;;;;;;;;;;;;;;;-144.99;75.25;52215.75;5065304;28;19939;-73
2023/06/30 07:54:38;;;;;;;;;;;;;;;-144.99;74.77;52211.66;5070488;28;19951;-72
2023/06/30 07:57:05;;;;;;;;;;;;;;;-144.99;74.39;52211.66;5060755;28;19991;-72
2023/06/30 07:59:33;;;;;;;;;;;;;;;-144.99;73.68;52219.81;5065082;28;19944;-72
2023/06/30 08:02:00;;;;;;;;;;;;;;;-144.99;74.04;52215.75;5065944;28;20422;-73
2023/06/30 08:04:27;;;;;;;;;;;;;;;-144.99;72.89;52232.03;5061564;28;19941;-72
2023/06/30 08:06:54;;;;;;;;;;;;;;;-144.99;72.62;52199.44;5057054;28;19940;-72
2023/06/30 08:09:21;;;;;;;;;;;;;;;-144.99;72.10;52199.44;5065646;28;19971;-72
2023/06/30 08:11:47;;;;;;;;;;;;;;;-144.99;71.48;52232.03;5056715;28;19965;-71
2023/06/30 08:14:14;;;;;;;;;;;;;;;-144.99;71.21;52166.81;5065687;28;19961;-72
2023/06/30 08:16:42;;;;;;;;;;;;;;;-144.99;71.20;52189.25;5061031;28;19939;-71
2023/06/30 08:19:08;;;;;;;;;;;;;;;-144.99;70.87;52174.97;5065263;28;19941;-71
2023/06/30 08:21:35;;;;;;;;;;;;;;;-144.99;70.23;52162.75;5066827;28;19963;-71
2023/06/30 08:24:02;;;;;;;;;;;;;;;-144.99;69.45;52207.59;5070251;28;20412;-72
2023/06/30 08:26:28;;;;;;;;;;;;;;;-144.99;69.42;52170.91;5059071;28;19935;-72
2023/06/30 08:28:55;;;;;;;;;;;;;;;-144.99;69.52;52197.41;5068059;28;19958;-72
2023/06/30 08:31:22;;;;;;;;;;;;;;;-144.99;69.32;52174.97;5069411;28;19966;-71
2023/06/30 08:33:50;;;;;;;;;;;;;;;-144.99;68.80;52203.50;5067673;28;20316;-72
2023/06/30 08:36:16;;;;;;;;;;;;;;;-144.99;68.47;52199.44;5069672;28;19935;-71
2023/06/30 08:38:43;;;;;;;;;;;;;;;-144.99;69.08;52199.44;5069290;28;20338;-72
2023/06/30 08:41:09;;;;;;;;;;;;;;;-144.99;69.19;52179.06;5069512;28;19977;-72
2023/06/30 08:43:37;;;;;;;;;;;;;;;-144.99;69.16;52223.88;5064482;28;20309;-72
2023/06/30 08:46:04;;;;;;;;;;;;;;;-144.99;68.77;52189.25;5071382;28;19938;-73
2023/06/30 08:48:32;;;;;;;;;;;;;;;-144.99;68.52;52205.53;5062244;28;19964;-74
2023/06/30 08:51:01;;;;;;;;;;;;;;;-144.99;68.50;52181.09;5063385;28;20453;-73
2023/06/30 08:53:28;;;;;;;;;;;;;;;-144.99;68.33;52197.41;5056926;28;19940;-73
2023/06/30 08:55:57;;;;;;;;;;;;;;;-144.99;68.16;52158.66;5074070;28;19945;-72
2023/06/30 08:58:24;;;;;;;;;;;;;;;-144.99;67.14;52166.81;5055924;28;19941;-72
2023/06/30 09:00:51;;;;;;;;;;;;;;;-144.99;67.01;52162.75;5067078;28;19961;-72
2023/06/30 09:03:18;;;;;;;;;;;;;;;-144.99;67.00;52146.44;5065600;28;19935;-73
2023/06/30 09:05:46;;;;;;;;;;;;;;;-144.99;65.96;52162.75;5061540;28;19948;-73
2023/06/30 09:08:16;;;;;;;;;;;;;;;-144.99;65.80;52146.44;5064789;28;20022;-73
2023/06/30 09:10:43;;;;;;;;;;;;;;;-144.99;65.75;52124.03;5062405;28;19932;-73
2023/06/30 09:13:11;;;;;;;;;;;;;;;-144.99;65.84;52187.19;5066363;28;19924;-73
2023/06/30 09:15:38;;;;;;;;;;;;;;;-144.99;65.59;52179.06;5065161;28;19928;-74
2023/06/30 09:18:05;;;;;;;;;;;;;;;-144.99;65.26;52160.72;5066970;28;19940;-73
2023/06/30 09:20:32;;;;;;;;;;;;;;;-144.99;65.70;52146.44;5062168;28;20354;-73
2023/06/30 09:22:59;;;;;;;;;;;;;;;-144.99;65.50;52197.41;5059885;28;19944;-73
2023/06/30 09:25:43;;;;;;;;;;;;;;;-144.99;65.52;52183.13;5059830;28;19937;-73
2023/06/30 09:28:11;;;;;;;;;;;;;;;-144.99;65.43;52146.44;5057712;28;20405;-73
2023/06/30 09:30:40;;;;;;;;;;;;;;;-144.99;65.06;52203.50;5056200;28;20389;-73
2023/06/30 09:33:07;;;;;;;;;;;;;;;-144.99;64.96;52148.47;5066714;28;19924;-72
2023/06/30 09:35:36;;;;;;;;;;;;;;;-144.99;64.84;52146.44;5068053;28;19939;-76
2023/06/30 09:38:03;;;;;;;;;;;;;;;-144.99;64.77;52162.75;5056132;28;20491;-72
2023/06/30 09:40:30;;;;;;;;;;;;;;;-144.99;64.54;52121.97;5061380;28;19960;-74
2023/06/30 09:42:58;;;;;;;;;;;;;;;-144.99;64.69;52146.44;5063709;28;19937;-72
2023/06/30 09:45:24;;;;;;;;;;;;;;;-144.99;63.62;52113.84;5065928;28;19944;-73
2023/06/30 09:47:51;;;;;;;;;;;;;;;-144.99;63.85;52130.13;5064188;28;19947;-72
2023/06/30 09:50:21;;;;;;;;;;;;;;;-144.99;62.94;52075.09;5064382;28;19959;-73
2023/06/30 09:52:48;;;;;;;;;;;;;;;-144.99;62.20;52113.84;5066916;28;19950;-72
2023/06/30 09:55:15;;;;;;;;;;;;;;;-144.99;61.88;52146.44;5061880;28;19929;-72
2023/06/30 09:57:43;;;;;;;;;;;;;;;-144.99;62.06;52089.38;5058310;28;20243;-71
2023/06/30 10:00:14;;;;;;;;;;;;;;;-144.99;62.20;52109.75;5063990;28;20046;-71
2023/06/30 10:02:41;;;;;;;;;;;;;;;-144.99;61.56;52115.88;5062056;28;20009;-71
2023/06/30 10:05:08;;;;;;;;;;;;;;;-144.99;61.25;52069.00;5068706;28;19982;-71
2023/06/30 10:07:35;;;;;;;;;;;;;;;-144.99;61.27;52105.69;5065509;28;19950;-71
2023/06/30 10:10:02;;;;;;;;;;;;;;;-144.99;61.41;52081.22;5064279;28;19959;-72
2023/06/30 10:12:30;;;;;;;;;;;;;;;-144.99;61.10;52075.09;5061122;28;19939;-71
2023/06/30 10:14:57;;;;;;;;;;;;;;;-144.99;61.02;52126.06;5060483;28;20398;-71
2023/06/30 10:17:25;;;;;;;;;;;;;;;-144.99;60.50;52089.38;5064163;28;19958;-71
2023/06/30 10:19:52;;;;;;;;;;;;;;;-144.99;61.22;52117.91;5070099;28;19962;-72
2023/06/30 10:22:19;;;;;;;;;;;;;;;-144.99;61.06;52056.78;5061273;28;19996;-72
2023/06/30 10:24:47;;;;;;;;;;;;;;;-144.99;61.23;52093.44;5059682;28;19928;-73
2023/06/30 10:27:18;;;;;;;;;;;;;;;-144.99;61.77;52069.00;5068271;28;20376;-71
2023/06/30 10:29:44;;;;;;;;;;;;;;;-144.99;60.65;52071.03;5063428;28;20002;-71
2023/06/30 10:32:12;;;;;;;;;;;;;;;-144.99;60.48;52073.06;5068563;28;19925;-71
2023/06/30 10:34:40;;;;;;;;;;;;;;;-144.99;59.87;52069.00;5063161;28;19961;-72
2023/06/30 10:37:07;;;;;;;;;;;;;;;-144.99;59.25;52089.38;5066576;28;19941;-72
2023/06/30 10:39:34;;;;;;;;;;;;;;;-144.99;58.57;52073.06;5067698;28;19971;-71
2023/06/30 10:42:00;;;;;;;;;;;;;;;-144.99;58.63;52073.06;5067098;28;19952;-71
2023/06/30 10:44:37;;;;;;;;;;;;;;;-144.99;58.20;52073.06;5063164;28;19935;-71
2023/06/30 10:47:04;;;;;;;;;;;;;;;-144.99;59.01;52073.06;5064405;28;20027;-71
2023/06/30 10:49:33;;;;;;;;;;;;;;;-144.99;59.39;52087.34;5066517;28;19964;-72
2023/06/30 10:52:01;;;;;;;;;;;;;;;-144.99;59.74;52044.53;5067427;28;19952;-71
2023/06/30 10:54:29;;;;;;;;;;;;;;;-144.99;57.80;52093.44;5069685;28;19947;-72
2023/06/30 10:57:05;;;;;;;;;;;;;;;-144.99;57.76;52064.91;5065857;28;19936;-71
2023/06/30 10:59:36;;;;;;;;;;;;;;;-144.99;59.04;52040.47;5057261;28;20264;-70
2023/06/30 11:02:23;;;;;;;;;;;;;;;-144.99;57.99;52119.94;5062692;28;20458;-71
2023/06/30 11:04:52;;;;;;;;;;;;;;;-144.99;58.05;52101.59;5060878;28;19984;-70
2023/06/30 11:07:28;;;;;;;;;;;;;;;-144.99;58.04;52113.84;5125131;27;19934;-73
2023/06/30 11:09:59;;;;;;;;;;;;;;;-144.99;58.27;52117.91;5109370;28;20403;-74
2023/06/30 11:12:27;;;;;;;;;;;;;;;-144.99;58.29;52085.31;5106269;28;20320;-72
2023/06/30 11:14:54;;;;;;;;;;;;;;;-144.99;58.52;52077.16;5109318;27;19996;-72
2023/06/30 11:17:21;;;;;;;;;;;;;;;-144.99;59.14;52089.38;5107842;28;19981;-71
2023/06/30 11:20:10;;;;;;;;;;;;;;;-144.99;59.13;52117.91;5104488;27;19977;-72
2023/06/30 11:22:38;;;;;;;;;;;;;;;-144.99;59.28;52073.06;5106130;28;19992;-72
2023/06/30 11:25:08;;;;;;;;;;;;;;;-144.99;58.59;52089.38;5104878;28;19936;-73
2023/06/30 11:27:36;;;;;;;;;;;;;;;-144.99;58.01;52050.66;5103457;28;19953;-71
2023/06/30 11:30:02;;;;;;;;;;;;;;;-144.99;57.53;52048.63;5108386;28;19954;-73
2023/06/30 11:32:30;;;;;;;;;;;;;;;-144.99;58.12;52126.06;5109197;27;20519;-71
2023/06/30 11:34:57;;;;;;;;;;;;;;;-144.99;58.25;52093.44;5109199;28;19940;-71
2023/06/30 11:37:24;;;;;;;;;;;;;;;-144.99;59.13;52081.22;5108483;27;20401;-71
2023/06/30 11:39:52;;;;;;;;;;;;;;;-144.99;58.97;52130.13;5104699;28;20404;-73
2023/06/30 11:42:19;;;;;;;;;;;;;;;-144.99;59.13;52146.44;5105300;28;19940;-71
2023/06/30 11:44:48;;;;;;;;;;;;;;;-144.99;59.04;52040.47;5111680;28;19995;-72
2023/06/30 11:47:15;;;;;;;;;;;;;;;-144.99;58.99;52056.78;5110118;27;19959;-72
2023/06/30 11:49:42;;;;;;;;;;;;;;;-144.99;58.70;52081.22;5104274;28;19979;-72
2023/06/30 11:52:09;;;;;;;;;;;;;;;-144.99;58.95;52093.44;5110005;28;19928;-72
2023/06/30 11:54:36;;;;;;;;;;;;;;;-144.99;59.44;52107.72;5107573;28;19948;-72
2023/06/30 11:57:05;;;;;;;;;;;;;;;-144.99;58.79;52091.41;5104382;28;19928;-72
2023/06/30 11:59:32;;;;;;;;;;;;;;;-144.99;59.00;52064.91;5104193;28;19955;-72
2023/06/30 12:02:00;;;;;;;;;;;;;;;-144.99;59.39;52048.63;5108334;28;19942;-72
2023/06/30 12:04:34;;;;;;;;;;;;;;;-144.99;58.94;52150.53;5109401;28;20023;-72
2023/06/30 12:07:02;;;;;;;;;;;;;;;-144.99;58.73;52048.63;5100357;28;19966;-72
2023/06/30 12:09:29;;;;;;;;;;;;;;;-144.99;59.08;52064.91;5105653;28;19940;-72
2023/06/30 12:11:56;;;;;;;;;;;;;;;-144.99;58.77;52069.00;5103298;28;20526;-74
2023/06/30 12:14:26;;;;;;;;;;;;;;;-144.99;58.17;52058.81;5112097;28;19944;-73
2023/06/30 12:16:53;;;;;;;;;;;;;;;-144.99;58.53;52097.53;5101075;28;19932;-73
2023/06/30 12:19:24;;;;;;;;;;;;;;;-144.99;58.72;52077.16;5085877;28;19944;-72
2023/06/30 12:21:54;;;;;;;;;;;;;;;-144.99;59.31;52105.69;5094051;28;19944;-72
2023/06/30 12:24:21;;;;;;;;;;;;;;;-144.99;59.35;52085.31;5093219;28;19938;-72